createdAt,value
2017-09-22T00:00:17.145Z,937.21
2017-09-22T00:00:46.245Z,937.22
2017-09-22T00:01:15.602Z,937.23
2017-09-22T00:01:44.967Z,937.2
2017-09-22T00:02:14.707Z,937.21
2017-09-22T00:02:44.044Z,937.23
2017-09-22T00:03:13.190Z,937.23
2017-09-22T00:03:42.788Z,937.2
2017-09-22T00:04:12.629Z,937.22
2017-09-22T00:04:42.197Z,937.24
2017-09-22T00:05:11.522Z,937.25
2017-09-22T00:05:41.478Z,937.26
2017-09-22T00:06:10.922Z,937.23
2017-09-22T00:06:40.424Z,937.26
2017-09-22T00:07:09.552Z,937.22
2017-09-22T00:07:38.593Z,937.25
2017-09-22T00:08:08.205Z,937.22
2017-09-22T00:08:37.606Z,937.25
2017-09-22T00:09:07.094Z,937.27
2017-09-22T00:09:36.318Z,937.24
2017-09-22T00:10:05.784Z,937.23
2017-09-22T00:10:35.252Z,937.24
2017-09-22T00:11:04.504Z,937.18
2017-09-22T00:11:33.815Z,937.21
2017-09-22T00:12:03.637Z,937.18
2017-09-22T00:12:33.232Z,937.22
2017-09-22T00:13:02.621Z,937.22
2017-09-22T00:13:31.839Z,937.22
2017-09-22T00:14:01.030Z,937.24
2017-09-22T00:14:30.318Z,937.22
2017-09-22T00:14:59.659Z,937.25
2017-09-22T00:15:29.467Z,937.23
2017-09-22T00:15:59.092Z,937.22
2017-09-22T00:16:28.329Z,937.24
2017-09-22T00:16:57.873Z,937.22
2017-09-22T00:17:27.269Z,937.24
2017-09-22T00:17:56.979Z,937.18
2017-09-22T00:18:27.343Z,937.21
2017-09-22T00:18:56.778Z,937.19
2017-09-22T00:19:26.283Z,937.15
2017-09-22T00:19:55.645Z,937.15
2017-09-22T00:20:24.821Z,937.13
2017-09-22T00:20:54.092Z,937.12
2017-09-22T00:21:23.326Z,937.14
2017-09-22T00:21:52.584Z,937.12
2017-09-22T00:22:21.960Z,937.11
2017-09-22T00:22:51.546Z,937.1
2017-09-22T00:23:20.847Z,937.12
2017-09-22T00:23:50.271Z,937.14
2017-09-22T00:24:19.418Z,937.15
2017-09-22T00:24:48.549Z,937.09
2017-09-22T00:25:17.893Z,937.12
2017-09-22T00:25:47.390Z,937.13
2017-09-22T00:26:16.928Z,937.12
2017-09-22T00:26:46.021Z,937.14
2017-09-22T00:27:15.153Z,937.13
2017-09-22T00:27:44.299Z,937.12
2017-09-22T00:28:13.477Z,937.11
2017-09-22T00:28:42.789Z,937.12
2017-09-22T00:29:12.040Z,937.1
2017-09-22T00:29:41.657Z,937.14
2017-09-22T00:30:10.683Z,937.14
2017-09-22T00:30:40.055Z,937.15
2017-09-22T00:31:09.267Z,937.14
2017-09-22T00:31:38.490Z,937.18
2017-09-22T00:32:08.272Z,937.15
2017-09-22T00:32:37.707Z,937.2
2017-09-22T00:33:07.015Z,937.19
2017-09-22T00:33:37.327Z,937.16
2017-09-22T00:34:07.053Z,937.22
2017-09-22T00:34:36.376Z,937.2
2017-09-22T00:35:05.822Z,937.17
2017-09-22T00:35:35.048Z,937.2
2017-09-22T00:36:04.310Z,937.21
2017-09-22T00:36:33.491Z,937.17
2017-09-22T00:37:02.652Z,937.2
2017-09-22T00:37:32.046Z,937.18
2017-09-22T00:38:01.125Z,937.19
2017-09-22T00:38:30.582Z,937.17
2017-09-22T00:38:59.929Z,937.18
2017-09-22T00:39:29.092Z,937.19
2017-09-22T00:39:58.234Z,937.19
2017-09-22T00:40:27.439Z,937.19
2017-09-22T00:40:56.804Z,937.16
2017-09-22T00:41:25.971Z,937.17
2017-09-22T00:41:55.099Z,937.17
2017-09-22T00:42:24.169Z,937.15
2017-09-22T00:42:54.065Z,937.13
2017-09-22T00:43:23.218Z,937.17
2017-09-22T00:43:52.679Z,937.13
2017-09-22T00:44:22.022Z,937.14
2017-09-22T00:44:51.220Z,937.15
2017-09-22T00:45:20.297Z,937.15
2017-09-22T00:45:49.294Z,937.15
2017-09-22T00:46:18.573Z,937.17
2017-09-22T00:46:47.836Z,937.19
2017-09-22T00:47:17.039Z,937.17
2017-09-22T00:47:46.239Z,937.2
2017-09-22T00:48:15.328Z,937.21
2017-09-22T00:48:44.654Z,937.2
2017-09-22T00:49:13.731Z,937.19
2017-09-22T00:49:42.603Z,937.19
2017-09-22T00:50:11.580Z,937.19
2017-09-22T00:50:40.791Z,937.2
2017-09-22T00:51:09.800Z,937.17
2017-09-22T00:51:38.877Z,937.23
2017-09-22T00:52:07.887Z,937.21
2017-09-22T00:52:37.337Z,937.16
2017-09-22T00:53:06.467Z,937.17
2017-09-22T00:53:35.702Z,937.16
2017-09-22T00:54:05.015Z,937.16
2017-09-22T00:54:34.244Z,937.21
2017-09-22T00:55:03.453Z,937.21
2017-09-22T00:55:32.790Z,937.19
2017-09-22T00:56:01.699Z,937.21
2017-09-22T00:56:30.709Z,937.22
2017-09-22T00:57:00.203Z,937.23
2017-09-22T00:57:29.557Z,937.21
2017-09-22T00:57:58.951Z,937.2
2017-09-22T00:58:28.068Z,937.22
2017-09-22T00:58:57.328Z,937.19
2017-09-22T00:59:26.388Z,937.21
2017-09-22T00:59:55.279Z,937.2
2017-09-22T01:00:24.397Z,937.22
2017-09-22T01:00:53.580Z,937.22
2017-09-22T01:01:22.312Z,937.21
2017-09-22T01:01:51.420Z,937.2
2017-09-22T01:02:20.776Z,937.23
2017-09-22T01:02:49.859Z,937.24
2017-09-22T01:03:18.923Z,937.26
2017-09-22T01:03:48.110Z,937.25
2017-09-22T01:04:17.020Z,937.24
2017-09-22T01:04:46.731Z,937.26
2017-09-22T01:05:15.836Z,937.26
2017-09-22T01:05:44.739Z,937.26
2017-09-22T01:06:13.948Z,937.25
2017-09-22T01:06:43.937Z,937.28
2017-09-22T01:07:12.920Z,937.25
2017-09-22T01:07:41.972Z,937.28
2017-09-22T01:08:10.899Z,937.28
2017-09-22T01:08:39.977Z,937.29
2017-09-22T01:09:09.164Z,937.25
2017-09-22T01:09:38.290Z,937.27
2017-09-22T01:10:07.107Z,937.24
2017-09-22T01:10:36.105Z,937.27
2017-09-22T01:11:05.024Z,937.27
2017-09-22T01:11:33.858Z,937.27
2017-09-22T01:12:02.842Z,937.27
2017-09-22T01:12:31.762Z,937.26
2017-09-22T01:13:00.754Z,937.27
2017-09-22T01:13:29.846Z,937.26
2017-09-22T01:13:58.840Z,937.25
2017-09-22T01:14:27.712Z,937.26
2017-09-22T01:14:57.217Z,937.25
2017-09-22T01:15:26.086Z,937.27
2017-09-22T01:15:55.260Z,937.27
2017-09-22T01:16:23.933Z,937.28
2017-09-22T01:16:52.868Z,937.26
2017-09-22T01:17:21.669Z,937.27
2017-09-22T01:17:50.553Z,937.27
2017-09-22T01:18:19.400Z,937.26
2017-09-22T01:18:48.352Z,937.23
2017-09-22T01:19:16.986Z,937.26
2017-09-22T01:19:45.658Z,937.27
2017-09-22T01:20:14.620Z,937.24
2017-09-22T01:20:43.488Z,937.27
2017-09-22T01:21:12.581Z,937.23
2017-09-22T01:21:41.335Z,937.22
2017-09-22T01:22:10.424Z,937.27
2017-09-22T01:22:39.328Z,937.25
2017-09-22T01:23:07.926Z,937.24
2017-09-22T01:23:36.713Z,937.22
2017-09-22T01:24:05.618Z,937.23
2017-09-22T01:24:34.457Z,937.21
2017-09-22T01:25:03.402Z,937.21
2017-09-22T01:25:32.211Z,937.19
2017-09-22T01:26:01.248Z,937.21
2017-09-22T01:26:29.942Z,937.21
2017-09-22T01:26:58.817Z,937.2
2017-09-22T01:27:27.770Z,937.15
2017-09-22T01:27:56.935Z,937.15
2017-09-22T01:28:25.663Z,937.16
2017-09-22T01:28:54.366Z,937.15
2017-09-22T01:29:23.296Z,937.13
2017-09-22T01:29:52.244Z,937.14
2017-09-22T01:30:21.208Z,937.14
2017-09-22T01:30:49.955Z,937.15
2017-09-22T01:31:18.630Z,937.15
2017-09-22T01:31:47.350Z,937.11
2017-09-22T01:32:16.199Z,937.1
2017-09-22T01:32:45.024Z,937.13
2017-09-22T01:33:14.265Z,937.12
2017-09-22T01:33:43.047Z,937.07
2017-09-22T01:34:11.949Z,937.08
2017-09-22T01:34:40.876Z,937.14
2017-09-22T01:35:09.898Z,937.05
2017-09-22T01:35:38.597Z,937.09
2017-09-22T01:36:07.175Z,937.11
2017-09-22T01:36:35.931Z,937.08
2017-09-22T01:37:04.755Z,937.11
2017-09-22T01:37:33.981Z,937.07
2017-09-22T01:38:03.076Z,937.1
2017-09-22T01:38:32.011Z,937.06
2017-09-22T01:39:00.764Z,937.01
2017-09-22T01:39:29.700Z,937.03
2017-09-22T01:39:58.684Z,937.04
2017-09-22T01:40:27.505Z,937.05
2017-09-22T01:40:56.343Z,937.08
2017-09-22T01:41:25.249Z,937.03
2017-09-22T01:41:54.098Z,937.08
2017-09-22T01:42:22.607Z,937.04
2017-09-22T01:42:52.102Z,937.04
2017-09-22T01:43:21.015Z,937.05
2017-09-22T01:43:49.687Z,937.04
2017-09-22T01:44:18.747Z,937.02
2017-09-22T01:44:47.381Z,937.01
2017-09-22T01:45:16.537Z,936.99
2017-09-22T01:45:45.118Z,937.03
2017-09-22T01:46:13.869Z,937.03
2017-09-22T01:46:42.456Z,937.03
2017-09-22T01:47:11.117Z,937.04
2017-09-22T01:47:40.040Z,937.03
2017-09-22T01:48:08.875Z,936.99
2017-09-22T01:48:37.542Z,937.01
2017-09-22T01:49:06.416Z,936.99
2017-09-22T01:49:35.341Z,936.97
2017-09-22T01:50:04.026Z,936.97
2017-09-22T01:50:32.886Z,937.01
2017-09-22T01:51:01.579Z,936.99
2017-09-22T01:51:30.433Z,936.99
2017-09-22T01:51:59.258Z,937
2017-09-22T01:52:28.065Z,936.99
2017-09-22T01:52:57.576Z,937.02
2017-09-22T01:53:26.287Z,937.02
2017-09-22T01:53:55.504Z,937.01
2017-09-22T01:54:24.412Z,937.03
2017-09-22T01:54:53.108Z,937.01
2017-09-22T01:55:21.845Z,937.01
2017-09-22T01:55:50.551Z,937.03
2017-09-22T01:56:19.462Z,937.05
2017-09-22T01:56:48.120Z,937.04
2017-09-22T01:57:17.036Z,937.04
2017-09-22T01:57:46.105Z,937.02
2017-09-22T01:58:14.765Z,937.05
2017-09-22T01:58:43.403Z,937.06
2017-09-22T01:59:12.284Z,937.06
2017-09-22T01:59:41.011Z,937.02
2017-09-22T02:00:10.105Z,937.04
2017-09-22T02:00:39.037Z,937.07
2017-09-22T02:01:07.665Z,937.06
2017-09-22T02:01:37.249Z,937.03
2017-09-22T02:02:06.109Z,937.06
2017-09-22T02:02:35.115Z,937.05
2017-09-22T02:03:03.998Z,937.05
2017-09-22T02:03:32.699Z,937.06
2017-09-22T02:04:01.314Z,937.04
2017-09-22T02:04:30.385Z,937.02
2017-09-22T02:04:59.223Z,937
2017-09-22T02:05:28.024Z,937.01
2017-09-22T02:05:56.915Z,936.99
2017-09-22T02:06:25.589Z,937
2017-09-22T02:06:54.187Z,937.01
2017-09-22T02:07:23.116Z,937.02
2017-09-22T02:07:52.146Z,937.04
2017-09-22T02:08:20.844Z,937
2017-09-22T02:08:49.572Z,937.01
2017-09-22T02:09:18.239Z,937.01
2017-09-22T02:09:47.315Z,937
2017-09-22T02:10:16.153Z,937.04
2017-09-22T02:10:45.050Z,937
2017-09-22T02:11:13.673Z,937
2017-09-22T02:11:42.331Z,937.01
2017-09-22T02:12:10.990Z,937
2017-09-22T02:12:39.795Z,937.02
2017-09-22T02:13:08.617Z,936.94
2017-09-22T02:13:37.480Z,936.95
2017-09-22T02:14:06.314Z,936.95
2017-09-22T02:14:35.952Z,936.95
2017-09-22T02:15:04.844Z,936.91
2017-09-22T02:15:33.638Z,936.9
2017-09-22T02:16:02.241Z,936.92
2017-09-22T02:16:31.056Z,936.89
2017-09-22T02:17:00.023Z,936.89
2017-09-22T02:17:28.690Z,936.9
2017-09-22T02:17:57.738Z,936.84
2017-09-22T02:18:26.614Z,936.87
2017-09-22T02:18:55.561Z,936.85
2017-09-22T02:19:24.229Z,936.85
2017-09-22T02:19:53.259Z,936.84
2017-09-22T02:20:21.929Z,936.87
2017-09-22T02:20:50.723Z,936.84
2017-09-22T02:21:19.737Z,936.87
2017-09-22T02:21:48.890Z,936.88
2017-09-22T02:22:17.547Z,936.85
2017-09-22T02:22:46.368Z,936.86
2017-09-22T02:23:15.029Z,936.87
2017-09-22T02:23:43.757Z,936.89
2017-09-22T02:24:12.383Z,936.85
2017-09-22T02:24:41.270Z,936.87
2017-09-22T02:25:10.082Z,936.85
2017-09-22T02:25:38.794Z,936.88
2017-09-22T02:26:07.704Z,936.85
2017-09-22T02:26:36.376Z,936.86
2017-09-22T02:27:05.226Z,936.84
2017-09-22T02:27:34.085Z,936.86
2017-09-22T02:28:02.637Z,936.85
2017-09-22T02:28:31.528Z,936.85
2017-09-22T02:29:00.311Z,936.84
2017-09-22T02:29:29.037Z,936.81
2017-09-22T02:29:57.875Z,936.82
2017-09-22T02:30:26.708Z,936.82
2017-09-22T02:30:55.605Z,936.84
2017-09-22T02:31:24.217Z,936.85
2017-09-22T02:31:52.927Z,936.84
2017-09-22T02:32:21.809Z,936.84
2017-09-22T02:32:50.710Z,936.81
2017-09-22T02:33:19.276Z,936.84
2017-09-22T02:33:48.005Z,936.81
2017-09-22T02:34:16.892Z,936.83
2017-09-22T02:34:45.665Z,936.79
2017-09-22T02:35:14.516Z,936.82
2017-09-22T02:35:43.131Z,936.79
2017-09-22T02:36:12.071Z,936.78
2017-09-22T02:36:41.051Z,936.79
2017-09-22T02:37:09.934Z,936.81
2017-09-22T02:37:38.658Z,936.82
2017-09-22T02:38:07.444Z,936.83
2017-09-22T02:38:36.337Z,936.84
2017-09-22T02:39:05.296Z,936.82
2017-09-22T02:39:34.241Z,936.86
2017-09-22T02:40:02.985Z,936.79
2017-09-22T02:40:31.608Z,936.87
2017-09-22T02:41:00.389Z,936.86
2017-09-22T02:41:29.194Z,936.84
2017-09-22T02:41:57.810Z,936.85
2017-09-22T02:42:26.562Z,936.85
2017-09-22T02:42:55.250Z,936.88
2017-09-22T02:43:24.131Z,936.84
2017-09-22T02:43:52.890Z,936.86
2017-09-22T02:44:21.936Z,936.85
2017-09-22T02:44:50.766Z,936.79
2017-09-22T02:45:19.546Z,936.83
2017-09-22T02:45:48.451Z,936.83
2017-09-22T02:46:17.111Z,936.78
2017-09-22T02:46:46.011Z,936.81
2017-09-22T02:47:14.872Z,936.79
2017-09-22T02:47:43.689Z,936.82
2017-09-22T02:48:12.157Z,936.82
2017-09-22T02:48:41.022Z,936.82
2017-09-22T02:49:09.342Z,936.79
2017-09-22T02:49:38.252Z,936.82
2017-09-22T02:50:07.297Z,936.83
2017-09-22T02:50:35.781Z,936.8
2017-09-22T02:51:04.620Z,936.79
2017-09-22T02:51:33.599Z,936.85
2017-09-22T02:52:02.240Z,936.83
2017-09-22T02:52:30.992Z,936.81
2017-09-22T02:52:59.747Z,936.8
2017-09-22T02:53:28.221Z,936.79
2017-09-22T02:53:57.105Z,936.82
2017-09-22T02:54:25.781Z,936.79
2017-09-22T02:54:54.618Z,936.78
2017-09-22T02:55:23.447Z,936.78
2017-09-22T02:55:52.280Z,936.78
2017-09-22T02:56:21.180Z,936.75
2017-09-22T02:56:49.940Z,936.76
2017-09-22T02:57:18.756Z,936.71
2017-09-22T02:57:47.826Z,936.79
2017-09-22T02:58:16.644Z,936.79
2017-09-22T02:58:45.378Z,936.8
2017-09-22T02:59:14.421Z,936.74
2017-09-22T02:59:43.180Z,936.75
2017-09-22T03:00:12.159Z,936.81
2017-09-22T03:00:40.968Z,936.75
2017-09-22T03:01:09.791Z,936.75
2017-09-22T03:01:38.628Z,936.73
2017-09-22T03:02:07.414Z,936.75
2017-09-22T03:02:36.415Z,936.76
2017-09-22T03:03:05.335Z,936.77
2017-09-22T03:03:33.823Z,936.78
2017-09-22T03:04:02.434Z,936.79
2017-09-22T03:04:31.075Z,936.79
2017-09-22T03:04:59.794Z,936.78
2017-09-22T03:05:28.609Z,936.77
2017-09-22T03:05:57.361Z,936.77
2017-09-22T03:06:26.209Z,936.76
2017-09-22T03:06:54.773Z,936.75
2017-09-22T03:07:24.246Z,936.76
2017-09-22T03:07:53.067Z,936.76
2017-09-22T03:08:22.025Z,936.75
2017-09-22T03:08:51.263Z,936.75
2017-09-22T03:09:19.890Z,936.75
2017-09-22T03:09:49.424Z,936.79
2017-09-22T03:10:18.193Z,936.72
2017-09-22T03:10:47.343Z,936.72
2017-09-22T03:11:16.126Z,936.73
2017-09-22T03:11:44.820Z,936.71
2017-09-22T03:12:13.598Z,936.73
2017-09-22T03:12:42.508Z,936.73
2017-09-22T03:13:11.274Z,936.73
2017-09-22T03:13:40.001Z,936.73
2017-09-22T03:14:09.674Z,936.72
2017-09-22T03:14:38.574Z,936.71
2017-09-22T03:15:07.634Z,936.74
2017-09-22T03:15:36.220Z,936.74
2017-09-22T03:16:04.943Z,936.7
2017-09-22T03:16:33.670Z,936.7
2017-09-22T03:17:02.574Z,936.68
2017-09-22T03:17:31.291Z,936.68
2017-09-22T03:18:00.268Z,936.68
2017-09-22T03:18:28.758Z,936.65
2017-09-22T03:18:57.323Z,936.69
2017-09-22T03:19:26.602Z,936.66
2017-09-22T03:19:55.257Z,936.65
2017-09-22T03:20:24.185Z,936.64
2017-09-22T03:20:52.938Z,936.66
2017-09-22T03:21:21.718Z,936.65
2017-09-22T03:21:50.562Z,936.62
2017-09-22T03:22:19.140Z,936.64
2017-09-22T03:22:47.962Z,936.61
2017-09-22T03:23:16.918Z,936.62
2017-09-22T03:23:45.856Z,936.63
2017-09-22T03:24:14.591Z,936.62
2017-09-22T03:24:43.640Z,936.64
2017-09-22T03:25:12.244Z,936.61
2017-09-22T03:25:41.014Z,936.64
2017-09-22T03:26:10.326Z,936.66
2017-09-22T03:26:38.980Z,936.64
2017-09-22T03:27:07.670Z,936.64
2017-09-22T03:27:36.177Z,936.65
2017-09-22T03:28:04.866Z,936.62
2017-09-22T03:28:33.487Z,936.61
2017-09-22T03:29:02.266Z,936.61
2017-09-22T03:29:30.931Z,936.61
2017-09-22T03:29:59.640Z,936.6
2017-09-22T03:30:28.332Z,936.61
2017-09-22T03:30:56.931Z,936.64
2017-09-22T03:31:25.721Z,936.62
2017-09-22T03:31:54.545Z,936.62
2017-09-22T03:32:23.603Z,936.63
2017-09-22T03:32:52.616Z,936.63
2017-09-22T03:33:21.524Z,936.64
2017-09-22T03:33:50.568Z,936.62
2017-09-22T03:34:19.396Z,936.61
2017-09-22T03:34:48.453Z,936.6
2017-09-22T03:35:17.410Z,936.63
2017-09-22T03:35:45.907Z,936.62
2017-09-22T03:36:14.513Z,936.62
2017-09-22T03:36:43.864Z,936.57
2017-09-22T03:37:12.817Z,936.61
2017-09-22T03:37:41.860Z,936.58
2017-09-22T03:38:10.808Z,936.63
2017-09-22T03:38:39.351Z,936.58
2017-09-22T03:39:07.930Z,936.62
2017-09-22T03:39:36.481Z,936.58
2017-09-22T03:40:05.196Z,936.59
2017-09-22T03:40:34.007Z,936.55
2017-09-22T03:41:02.643Z,936.58
2017-09-22T03:41:31.415Z,936.57
2017-09-22T03:42:00.143Z,936.55
2017-09-22T03:42:29.036Z,936.61
2017-09-22T03:42:57.793Z,936.58
2017-09-22T03:43:26.221Z,936.54
2017-09-22T03:43:54.944Z,936.54
2017-09-22T03:44:23.616Z,936.55
2017-09-22T03:44:52.826Z,936.52
2017-09-22T03:45:21.743Z,936.55
2017-09-22T03:45:50.534Z,936.53
2017-09-22T03:46:19.359Z,936.52
2017-09-22T03:46:48.190Z,936.52
2017-09-22T03:47:16.878Z,936.53
2017-09-22T03:47:45.808Z,936.56
2017-09-22T03:48:14.483Z,936.52
2017-09-22T03:48:43.313Z,936.56
2017-09-22T03:49:12.111Z,936.52
2017-09-22T03:49:40.871Z,936.52
2017-09-22T03:50:09.723Z,936.53
2017-09-22T03:50:38.370Z,936.53
2017-09-22T03:51:07.206Z,936.55
2017-09-22T03:51:35.964Z,936.55
2017-09-22T03:52:05.504Z,936.57
2017-09-22T03:52:34.392Z,936.59
2017-09-22T03:53:03.129Z,936.57
2017-09-22T03:53:31.877Z,936.55
2017-09-22T03:54:01.346Z,936.54
2017-09-22T03:54:30.302Z,936.52
2017-09-22T03:54:59.131Z,936.54
2017-09-22T03:55:27.907Z,936.55
2017-09-22T03:55:56.880Z,936.56
2017-09-22T03:56:25.703Z,936.56
2017-09-22T03:56:54.399Z,936.55
2017-09-22T03:57:23.267Z,936.54
2017-09-22T03:57:52.371Z,936.53
2017-09-22T03:58:21.410Z,936.55
2017-09-22T03:58:50.195Z,936.57
2017-09-22T03:59:19.149Z,936.56
2017-09-22T03:59:47.907Z,936.56
2017-09-22T04:00:16.703Z,936.55
2017-09-22T04:00:45.507Z,936.57
2017-09-22T04:01:14.583Z,936.58
2017-09-22T04:01:43.447Z,936.59
2017-09-22T04:02:12.361Z,936.55
2017-09-22T04:02:41.572Z,936.57
2017-09-22T04:03:10.501Z,936.57
2017-09-22T04:03:39.483Z,936.59
2017-09-22T04:04:08.165Z,936.54
2017-09-22T04:04:37.217Z,936.61
2017-09-22T04:05:06.200Z,936.6
2017-09-22T04:05:35.005Z,936.53
2017-09-22T04:06:03.943Z,936.62
2017-09-22T04:06:32.891Z,936.62
2017-09-22T04:07:01.909Z,936.61
2017-09-22T04:07:31.664Z,936.59
2017-09-22T04:08:00.519Z,936.58
2017-09-22T04:08:29.692Z,936.61
2017-09-22T04:08:58.517Z,936.58
2017-09-22T04:09:27.490Z,936.59
2017-09-22T04:09:56.353Z,936.58
2017-09-22T04:10:24.943Z,936.56
2017-09-22T04:10:54.058Z,936.57
2017-09-22T04:11:23.249Z,936.57
2017-09-22T04:11:51.805Z,936.54
2017-09-22T04:12:20.917Z,936.57
2017-09-22T04:12:49.769Z,936.58
2017-09-22T04:13:18.617Z,936.61
2017-09-22T04:13:47.458Z,936.57
2017-09-22T04:14:16.202Z,936.56
2017-09-22T04:14:44.814Z,936.54
2017-09-22T04:15:13.767Z,936.55
2017-09-22T04:15:42.622Z,936.59
2017-09-22T04:16:11.460Z,936.53
2017-09-22T04:16:40.002Z,936.53
2017-09-22T04:17:08.883Z,936.54
2017-09-22T04:17:37.789Z,936.55
2017-09-22T04:18:06.290Z,936.54
2017-09-22T04:18:35.128Z,936.54
2017-09-22T04:19:03.806Z,936.55
2017-09-22T04:19:32.846Z,936.52
2017-09-22T04:29:08.966Z,936.53
2017-09-22T04:29:37.096Z,936.49
2017-09-22T04:30:05.231Z,936.45
2017-09-22T04:30:33.246Z,936.51
2017-09-22T04:31:01.250Z,936.51
2017-09-22T04:31:29.274Z,936.5
2017-09-22T04:31:57.396Z,936.53
2017-09-22T04:32:25.422Z,936.49
2017-09-22T04:32:53.460Z,936.48
2017-09-22T04:33:21.372Z,936.52
2017-09-22T04:33:49.208Z,936.53
2017-09-22T04:34:17.128Z,936.53
2017-09-22T04:34:45.240Z,936.54
2017-09-22T04:35:13.057Z,936.51
2017-09-22T04:35:41.184Z,936.54
2017-09-22T04:36:09.207Z,936.56
2017-09-22T04:36:37.121Z,936.53
2017-09-22T04:37:04.866Z,936.53
2017-09-22T04:37:32.977Z,936.49
2017-09-22T04:38:01.778Z,936.52
2017-09-22T04:38:29.801Z,936.52
2017-09-22T04:38:57.827Z,936.49
2017-09-22T04:39:25.956Z,936.5
2017-09-22T04:39:54.089Z,936.53
2017-09-22T04:40:21.909Z,936.5
2017-09-22T04:40:49.830Z,936.53
2017-09-22T04:41:17.765Z,936.5
2017-09-22T04:41:45.789Z,936.48
2017-09-22T04:42:13.857Z,936.49
2017-09-22T04:42:42.064Z,936.47
2017-09-22T04:43:10.004Z,936.49
2017-09-22T04:43:38.018Z,936.48
2017-09-22T04:44:06.805Z,936.51
2017-09-22T04:44:34.922Z,936.5
2017-09-22T04:45:02.945Z,936.49
2017-09-22T04:45:30.888Z,936.53
2017-09-22T04:45:58.917Z,936.47
2017-09-22T04:46:27.041Z,936.51
2017-09-22T04:46:55.167Z,936.53
2017-09-22T04:47:22.900Z,936.54
2017-09-22T04:47:50.925Z,936.52
2017-09-22T04:48:19.047Z,936.54
2017-09-22T04:48:47.057Z,936.55
2017-09-22T04:49:15.094Z,936.54
2017-09-22T04:49:43.041Z,936.53
2017-09-22T04:50:11.053Z,936.56
2017-09-22T04:50:38.999Z,936.54
2017-09-22T04:51:07.104Z,936.53
2017-09-22T04:51:35.129Z,936.54
2017-09-22T04:52:03.156Z,936.53
2017-09-22T04:52:30.981Z,936.52
2017-09-22T04:52:58.894Z,936.5
2017-09-22T04:53:26.894Z,936.5
2017-09-22T04:53:55.021Z,936.52
2017-09-22T04:54:23.350Z,936.49
2017-09-22T04:54:51.751Z,936.48
2017-09-22T04:55:20.874Z,936.48
2017-09-22T04:55:49.372Z,936.46
2017-09-22T04:56:18.063Z,936.47
2017-09-22T04:56:46.864Z,936.44
2017-09-22T04:57:15.501Z,936.48
2017-09-22T04:57:44.103Z,936.41
2017-09-22T04:58:12.756Z,936.44
2017-09-22T04:58:41.772Z,936.45
2017-09-22T04:59:10.464Z,936.46
2017-09-22T04:59:39.207Z,936.4
2017-09-22T05:00:08.536Z,936.42
2017-09-22T05:00:37.350Z,936.4
2017-09-22T05:01:06.081Z,936.42
2017-09-22T05:01:34.764Z,936.44
2017-09-22T05:02:03.585Z,936.45
2017-09-22T05:02:32.968Z,936.46
2017-09-22T05:03:01.736Z,936.46
2017-09-22T05:03:30.523Z,936.45
2017-09-22T05:03:59.887Z,936.43
2017-09-22T05:04:28.740Z,936.45
2017-09-22T05:04:57.441Z,936.45
2017-09-22T05:05:26.165Z,936.41
2017-09-22T05:05:54.794Z,936.43
2017-09-22T05:06:23.752Z,936.44
2017-09-22T05:06:52.456Z,936.46
2017-09-22T05:07:21.132Z,936.43
2017-09-22T05:07:49.838Z,936.43
2017-09-22T05:08:18.991Z,936.42
2017-09-22T05:08:48.092Z,936.43
2017-09-22T05:09:16.665Z,936.45
2017-09-22T05:09:45.367Z,936.48
2017-09-22T05:10:13.820Z,936.42
2017-09-22T05:10:42.728Z,936.41
2017-09-22T05:11:11.559Z,936.41
2017-09-22T05:11:40.261Z,936.41
2017-09-22T05:12:08.994Z,936.41
2017-09-22T05:12:37.678Z,936.44
2017-09-22T05:13:06.366Z,936.43
2017-09-22T05:13:35.192Z,936.44
2017-09-22T05:14:03.953Z,936.45
2017-09-22T05:14:32.919Z,936.42
2017-09-22T05:15:01.610Z,936.43
2017-09-22T05:15:31.068Z,936.42
2017-09-22T05:15:59.711Z,936.44
2017-09-22T05:16:28.014Z,936.44
2017-09-22T05:16:56.697Z,936.41
2017-09-22T05:17:25.267Z,936.43
2017-09-22T05:17:53.945Z,936.41
2017-09-22T05:18:22.933Z,936.42
2017-09-22T05:18:51.484Z,936.44
2017-09-22T05:19:20.260Z,936.42
2017-09-22T05:19:49.248Z,936.46
2017-09-22T05:20:17.985Z,936.39
2017-09-22T05:20:46.578Z,936.37
2017-09-22T05:21:15.288Z,936.41
2017-09-22T05:21:44.440Z,936.4
2017-09-22T05:22:13.466Z,936.35
2017-09-22T05:22:42.299Z,936.36
2017-09-22T05:23:10.943Z,936.39
2017-09-22T05:23:39.515Z,936.37
2017-09-22T05:24:08.184Z,936.37
2017-09-22T05:24:36.586Z,936.36
2017-09-22T05:25:05.501Z,936.38
2017-09-22T05:25:34.143Z,936.35
2017-09-22T05:26:02.847Z,936.34
2017-09-22T05:26:31.760Z,936.33
2017-09-22T05:27:00.505Z,936.34
2017-09-22T05:27:29.290Z,936.34
2017-09-22T05:27:57.887Z,936.34
2017-09-22T05:28:26.552Z,936.3
2017-09-22T05:28:55.215Z,936.32
2017-09-22T05:29:23.869Z,936.32
2017-09-22T05:29:52.448Z,936.31
2017-09-22T05:30:21.087Z,936.28
2017-09-22T05:30:49.551Z,936.34
2017-09-22T05:31:18.055Z,936.33
2017-09-22T05:31:46.443Z,936.3
2017-09-22T05:32:15.058Z,936.32
2017-09-22T05:32:44.175Z,936.31
2017-09-22T05:33:12.857Z,936.31
2017-09-22T05:33:41.678Z,936.3
2017-09-22T05:34:10.351Z,936.32
2017-09-22T05:34:39.254Z,936.28
2017-09-22T05:35:07.808Z,936.3
2017-09-22T05:35:36.727Z,936.3
2017-09-22T05:36:06.508Z,936.3
2017-09-22T05:36:35.755Z,936.31
2017-09-22T05:37:04.544Z,936.28
2017-09-22T05:37:33.956Z,936.32
2017-09-22T05:38:03.004Z,936.35
2017-09-22T05:38:32.033Z,936.3
2017-09-22T05:39:00.784Z,936.29
2017-09-22T05:39:29.352Z,936.29
2017-09-22T05:39:58.430Z,936.32
2017-09-22T05:40:27.330Z,936.28
2017-09-22T05:40:55.879Z,936.31
2017-09-22T05:41:24.678Z,936.28
2017-09-22T05:41:53.401Z,936.3
2017-09-22T05:42:22.813Z,936.29
2017-09-22T05:42:51.579Z,936.28
2017-09-22T05:43:20.293Z,936.28
2017-09-22T05:43:48.968Z,936.27
2017-09-22T05:44:17.746Z,936.25
2017-09-22T05:44:46.462Z,936.3
2017-09-22T05:45:15.207Z,936.28
2017-09-22T05:45:44.059Z,936.31
2017-09-22T05:46:12.866Z,936.28
2017-09-22T05:46:41.478Z,936.29
2017-09-22T05:47:10.324Z,936.29
2017-09-22T05:47:39.577Z,936.3
2017-09-22T05:48:08.239Z,936.29
2017-09-22T05:48:36.959Z,936.31
2017-09-22T05:49:05.716Z,936.28
2017-09-22T05:49:34.435Z,936.26
2017-09-22T05:50:03.194Z,936.31
2017-09-22T05:50:31.777Z,936.27
2017-09-22T05:51:00.270Z,936.28
2017-09-22T05:51:29.015Z,936.3
2017-09-22T05:51:57.611Z,936.26
2017-09-22T05:52:26.110Z,936.32
2017-09-22T05:52:54.890Z,936.26
2017-09-22T05:53:23.609Z,936.24
2017-09-22T05:53:52.152Z,936.26
2017-09-22T05:54:20.881Z,936.28
2017-09-22T05:54:49.413Z,936.27
2017-09-22T05:55:18.060Z,936.26
2017-09-22T05:55:46.869Z,936.25
2017-09-22T05:56:15.665Z,936.23
2017-09-22T05:56:44.514Z,936.25
2017-09-22T05:57:13.001Z,936.25
2017-09-22T05:57:41.672Z,936.22
2017-09-22T05:58:10.470Z,936.23
2017-09-22T05:58:39.271Z,936.25
2017-09-22T05:59:08.070Z,936.22
2017-09-22T05:59:36.877Z,936.27
2017-09-22T06:00:05.447Z,936.23
2017-09-22T06:00:34.396Z,936.24
2017-09-22T06:01:03.200Z,936.23
2017-09-22T06:01:31.848Z,936.21
2017-09-22T06:02:00.616Z,936.26
2017-09-22T06:02:29.389Z,936.21
2017-09-22T06:02:58.799Z,936.24
2017-09-22T06:03:27.702Z,936.24
2017-09-22T06:03:56.550Z,936.31
2017-09-22T06:04:25.053Z,936.3
2017-09-22T06:04:53.716Z,936.3
2017-09-22T06:05:22.581Z,936.26
2017-09-22T06:05:51.236Z,936.3
2017-09-22T06:06:19.591Z,936.31
2017-09-22T06:06:48.422Z,936.3
2017-09-22T06:07:17.026Z,936.3
2017-09-22T06:07:45.707Z,936.28
2017-09-22T06:08:14.341Z,936.28
2017-09-22T06:08:42.875Z,936.27
2017-09-22T06:09:11.659Z,936.29
2017-09-22T06:09:40.143Z,936.32
2017-09-22T06:10:08.677Z,936.3